sensor_id;sensor_type;location;lat;lon;timestamp;temperature;humidity
47482;DHT22;33219;47.410;9.730;2023-12-04T00:02:02;-6.30;99.90
47482;DHT22;33219;47.410;9.730;2023-12-04T00:04:29;-6.30;99.90
47482;DHT22;33219;47.410;9.730;2023-12-04T00:06:56;-6.30;99.90
47482;DHT22;33219;47.410;9.730;2023-12-04T00:09:23;-6.40;99.90
47482;DHT22;33219;47.410;9.730;2023-12-04T00:11:50;-6.40;99.90
47482;DHT22;33219;47.410;9.730;2023-12-04T00:14:17;-6.40;99.90
47482;DHT22;33219;47.410;9.730;2023-12-04T00:16:44;-6.40;99.90
47482;DHT22;33219;47.410;9.730;2023-12-04T00:19:11;-6.40;99.90
47482;DHT22;33219;47.410;9.730;2023-12-04T00:21:38;-6.50;99.90
47482;DHT22;33219;47.410;9.730;2023-12-04T00:24:05;-6.50;99.90
47482;DHT22;33219;47.410;9.730;2023-12-04T00:26:32;-6.50;99.90
47482;DHT22;33219;47.410;9.730;2023-12-04T00:28:59;-6.60;99.90
47482;DHT22;33219;47.410;9.730;2023-12-04T00:31:25;-6.60;99.90
47482;DHT22;33219;47.410;9.730;2023-12-04T00:33:52;-6.50;99.90
47482;DHT22;33219;47.410;9.730;2023-12-04T00:36:19;-6.50;99.90
47482;DHT22;33219;47.410;9.730;2023-12-04T00:38:46;-6.60;99.90
47482;DHT22;33219;47.410;9.730;2023-12-04T00:41:13;-6.60;99.90
47482;DHT22;33219;47.410;9.730;2023-12-04T00:43:40;-6.70;99.90
47482;DHT22;33219;47.410;9.730;2023-12-04T00:46:06;-6.80;99.90
47482;DHT22;33219;47.410;9.730;2023-12-04T00:48:33;-6.80;99.90
47482;DHT22;33219;47.410;9.730;2023-12-04T00:51:00;-6.90;99.90
47482;DHT22;33219;47.410;9.730;2023-12-04T00:53:27;-6.90;99.90
47482;DHT22;33219;47.410;9.730;2023-12-04T00:55:54;-6.90;99.90
47482;DHT22;33219;47.410;9.730;2023-12-04T00:58:21;-6.90;99.90
47482;DHT22;33219;47.410;9.730;2023-12-04T01:00:47;-6.90;99.90
47482;DHT22;33219;47.410;9.730;2023-12-04T01:03:16;-6.80;99.90
47482;DHT22;33219;47.410;9.730;2023-12-04T01:05:43;-6.80;99.90
47482;DHT22;33219;47.410;9.730;2023-12-04T01:08:10;-6.80;99.90
47482;DHT22;33219;47.410;9.730;2023-12-04T01:10:38;-6.80;99.90
47482;DHT22;33219;47.410;9.730;2023-12-04T01:13:05;-6.80;99.90
47482;DHT22;33219;47.410;9.730;2023-12-04T01:15:32;-6.80;99.90
47482;DHT22;33219;47.410;9.730;2023-12-04T01:17:59;-6.90;99.90
47482;DHT22;33219;47.410;9.730;2023-12-04T01:20:26;-6.90;99.90
47482;DHT22;33219;47.410;9.730;2023-12-04T01:22:53;-6.80;99.90
47482;DHT22;33219;47.410;9.730;2023-12-04T01:25:20;-6.90;99.90
47482;DHT22;33219;47.410;9.730;2023-12-04T01:27:47;-6.90;99.90
47482;DHT22;33219;47.410;9.730;2023-12-04T01:30:13;-6.90;99.90
47482;DHT22;33219;47.410;9.730;2023-12-04T01:32:40;-6.90;99.90
47482;DHT22;33219;47.410;9.730;2023-12-04T01:35:07;-6.90;99.90
47482;DHT22;33219;47.410;9.730;2023-12-04T01:37:34;-6.90;99.90
47482;DHT22;33219;47.410;9.730;2023-12-04T01:40:01;-6.90;99.90
47482;DHT22;33219;47.410;9.730;2023-12-04T01:42:28;-6.80;99.90
47482;DHT22;33219;47.410;9.730;2023-12-04T01:44:55;-6.70;99.90
47482;DHT22;33219;47.410;9.730;2023-12-04T01:47:22;-6.50;99.90
47482;DHT22;33219;47.410;9.730;2023-12-04T01:49:48;-6.50;99.90
47482;DHT22;33219;47.410;9.730;2023-12-04T01:52:15;-6.50;99.90
47482;DHT22;33219;47.410;9.730;2023-12-04T01:54:42;-6.50;99.90
47482;DHT22;33219;47.410;9.730;2023-12-04T01:57:10;-6.50;99.90
47482;DHT22;33219;47.410;9.730;2023-12-04T01:59:37;-6.60;99.90
47482;DHT22;33219;47.410;9.730;2023-12-04T02:02:04;-6.70;99.90
47482;DHT22;33219;47.410;9.730;2023-12-04T02:04:31;-6.70;99.90
47482;DHT22;33219;47.410;9.730;2023-12-04T02:06:58;-6.80;99.90
47482;DHT22;33219;47.410;9.730;2023-12-04T02:09:25;-6.80;99.90
47482;DHT22;33219;47.410;9.730;2023-12-04T02:11:52;-6.70;99.90
47482;DHT22;33219;47.410;9.730;2023-12-04T02:14:22;-6.70;99.90
47482;DHT22;33219;47.410;9.730;2023-12-04T02:16:49;-6.60;99.90
47482;DHT22;33219;47.410;9.730;2023-12-04T02:19:17;-6.50;99.90
47482;DHT22;33219;47.410;9.730;2023-12-04T02:21:44;-6.50;99.90
47482;DHT22;33219;47.410;9.730;2023-12-04T02:24:11;-6.50;99.90
47482;DHT22;33219;47.410;9.730;2023-12-04T02:26:43;-6.50;99.90
47482;DHT22;33219;47.410;9.730;2023-12-04T02:29:07;-6.50;99.90
47482;DHT22;33219;47.410;9.730;2023-12-04T02:31:34;-6.40;99.90
47482;DHT22;33219;47.410;9.730;2023-12-04T02:34:01;-6.40;99.90
47482;DHT22;33219;47.410;9.730;2023-12-04T02:36:30;-6.40;99.90
47482;DHT22;33219;47.410;9.730;2023-12-04T02:38:57;-6.30;99.90
47482;DHT22;33219;47.410;9.730;2023-12-04T02:41:24;-6.30;99.90
47482;DHT22;33219;47.410;9.730;2023-12-04T02:43:51;-6.20;99.90
47482;DHT22;33219;47.410;9.730;2023-12-04T02:46:17;-6.00;99.90
47482;DHT22;33219;47.410;9.730;2023-12-04T02:48:44;-5.90;99.90
47482;DHT22;33219;47.410;9.730;2023-12-04T02:51:11;-5.90;99.90
47482;DHT22;33219;47.410;9.730;2023-12-04T02:53:38;-5.90;99.90
47482;DHT22;33219;47.410;9.730;2023-12-04T02:56:05;-5.90;99.90
47482;DHT22;33219;47.410;9.730;2023-12-04T02:58:32;-5.90;99.90
47482;DHT22;33219;47.410;9.730;2023-12-04T03:01:00;-5.90;99.90
47482;DHT22;33219;47.410;9.730;2023-12-04T03:03:27;-5.90;99.90
47482;DHT22;33219;47.410;9.730;2023-12-04T03:05:54;-5.90;99.90
47482;DHT22;33219;47.410;9.730;2023-12-04T03:08:21;-6.00;99.90
47482;DHT22;33219;47.410;9.730;2023-12-04T03:10:47;-6.00;99.90
47482;DHT22;33219;47.410;9.730;2023-12-04T03:13:14;-6.00;99.90
47482;DHT22;33219;47.410;9.730;2023-12-04T03:15:41;-6.00;99.90
47482;DHT22;33219;47.410;9.730;2023-12-04T03:18:08;-6.00;99.90
47482;DHT22;33219;47.410;9.730;2023-12-04T03:20:35;-6.00;99.90
47482;DHT22;33219;47.410;9.730;2023-12-04T03:23:01;-5.90;99.90
47482;DHT22;33219;47.410;9.730;2023-12-04T03:25:28;-5.90;99.90
47482;DHT22;33219;47.410;9.730;2023-12-04T03:27:55;-5.80;99.90
47482;DHT22;33219;47.410;9.730;2023-12-04T03:30:22;-5.80;99.90
47482;DHT22;33219;47.410;9.730;2023-12-04T03:32:49;-5.80;99.90
47482;DHT22;33219;47.410;9.730;2023-12-04T03:35:16;-5.70;99.90
47482;DHT22;33219;47.410;9.730;2023-12-04T03:37:42;-5.80;99.90
47482;DHT22;33219;47.410;9.730;2023-12-04T03:40:09;-5.70;99.90
47482;DHT22;33219;47.410;9.730;2023-12-04T03:42:36;-5.70;99.90
47482;DHT22;33219;47.410;9.730;2023-12-04T03:45:03;-5.60;99.90
47482;DHT22;33219;47.410;9.730;2023-12-04T03:47:30;-5.60;99.90
47482;DHT22;33219;47.410;9.730;2023-12-04T03:50:00;-5.70;99.90
47482;DHT22;33219;47.410;9.730;2023-12-04T03:52:27;-5.70;99.90
47482;DHT22;33219;47.410;9.730;2023-12-04T03:54:54;-5.60;99.90
47482;DHT22;33219;47.410;9.730;2023-12-04T03:57:20;-5.60;99.90
47482;DHT22;33219;47.410;9.730;2023-12-04T03:59:47;-5.60;99.90
47482;DHT22;33219;47.410;9.730;2023-12-04T04:02:14;-5.50;99.90
47482;DHT22;33219;47.410;9.730;2023-12-04T04:04:41;-5.40;99.90
47482;DHT22;33219;47.410;9.730;2023-12-04T04:07:08;-5.40;99.90
47482;DHT22;33219;47.410;9.730;2023-12-04T04:09:35;-5.30;99.90
47482;DHT22;33219;47.410;9.730;2023-12-04T04:12:02;-5.30;99.90
47482;DHT22;33219;47.410;9.730;2023-12-04T04:14:30;-5.30;99.90
47482;DHT22;33219;47.410;9.730;2023-12-04T04:16:57;-5.20;99.90
47482;DHT22;33219;47.410;9.730;2023-12-04T04:19:23;-5.30;99.90
47482;DHT22;33219;47.410;9.730;2023-12-04T04:21:50;-5.30;99.90
47482;DHT22;33219;47.410;9.730;2023-12-04T04:24:18;-5.20;99.90
47482;DHT22;33219;47.410;9.730;2023-12-04T04:26:45;-5.20;99.90
47482;DHT22;33219;47.410;9.730;2023-12-04T04:29:12;-5.30;99.90
47482;DHT22;33219;47.410;9.730;2023-12-04T04:31:39;-5.50;99.90
47482;DHT22;33219;47.410;9.730;2023-12-04T04:34:06;-5.70;99.90
47482;DHT22;33219;47.410;9.730;2023-12-04T04:36:33;-5.80;99.90
47482;DHT22;33219;47.410;9.730;2023-12-04T04:39:01;-6.00;99.90
47482;DHT22;33219;47.410;9.730;2023-12-04T04:41:28;-6.10;99.90
47482;DHT22;33219;47.410;9.730;2023-12-04T04:43:55;-6.20;99.90
47482;DHT22;33219;47.410;9.730;2023-12-04T04:46:22;-6.40;99.90
47482;DHT22;33219;47.410;9.730;2023-12-04T04:48:50;-6.40;99.90
47482;DHT22;33219;47.410;9.730;2023-12-04T04:51:17;-6.50;99.90
47482;DHT22;33219;47.410;9.730;2023-12-04T04:53:44;-6.50;99.90
47482;DHT22;33219;47.410;9.730;2023-12-04T04:56:11;-6.60;99.90
47482;DHT22;33219;47.410;9.730;2023-12-04T04:58:38;-6.60;99.90
47482;DHT22;33219;47.410;9.730;2023-12-04T05:01:05;-6.60;99.90
47482;DHT22;33219;47.410;9.730;2023-12-04T05:03:32;-6.60;99.90
47482;DHT22;33219;47.410;9.730;2023-12-04T05:05:59;-6.50;99.90
47482;DHT22;33219;47.410;9.730;2023-12-04T05:08:26;-6.50;99.90
47482;DHT22;33219;47.410;9.730;2023-12-04T05:10:53;-6.50;99.90
47482;DHT22;33219;47.410;9.730;2023-12-04T05:13:20;-6.50;99.90
47482;DHT22;33219;47.410;9.730;2023-12-04T05:15:47;-6.40;99.90
47482;DHT22;33219;47.410;9.730;2023-12-04T05:18:14;-6.40;99.90
47482;DHT22;33219;47.410;9.730;2023-12-04T05:20:40;-6.40;99.90
47482;DHT22;33219;47.410;9.730;2023-12-04T05:23:07;-6.40;99.90
47482;DHT22;33219;47.410;9.730;2023-12-04T05:25:34;-6.30;99.90
47482;DHT22;33219;47.410;9.730;2023-12-04T05:28:01;-6.30;99.90
47482;DHT22;33219;47.410;9.730;2023-12-04T05:30:28;-6.30;99.90
47482;DHT22;33219;47.410;9.730;2023-12-04T05:32:54;-6.30;99.90
47482;DHT22;33219;47.410;9.730;2023-12-04T05:35:21;-6.30;99.90
47482;DHT22;33219;47.410;9.730;2023-12-04T05:37:48;-6.20;99.90
47482;DHT22;33219;47.410;9.730;2023-12-04T05:40:15;-6.20;99.90
47482;DHT22;33219;47.410;9.730;2023-12-04T05:42:43;-6.10;99.90
47482;DHT22;33219;47.410;9.730;2023-12-04T05:45:10;-6.10;99.90
47482;DHT22;33219;47.410;9.730;2023-12-04T05:47:36;-6.00;99.90
47482;DHT22;33219;47.410;9.730;2023-12-04T05:50:03;-6.00;99.90
47482;DHT22;33219;47.410;9.730;2023-12-04T05:52:30;-5.90;99.90
47482;DHT22;33219;47.410;9.730;2023-12-04T05:54:57;-5.90;99.90
47482;DHT22;33219;47.410;9.730;2023-12-04T05:57:24;-5.80;99.90
47482;DHT22;33219;47.410;9.730;2023-12-04T05:59:51;-5.80;99.90
47482;DHT22;33219;47.410;9.730;2023-12-04T06:02:18;-5.70;99.90
47482;DHT22;33219;47.410;9.730;2023-12-04T06:04:45;-5.70;99.90
47482;DHT22;33219;47.410;9.730;2023-12-04T06:07:12;-5.70;99.90
47482;DHT22;33219;47.410;9.730;2023-12-04T06:09:39;-5.70;99.90
47482;DHT22;33219;47.410;9.730;2023-12-04T06:12:05;-5.70;99.90
47482;DHT22;33219;47.410;9.730;2023-12-04T06:14:34;-5.70;99.90
47482;DHT22;33219;47.410;9.730;2023-12-04T06:17:02;-5.60;99.90
47482;DHT22;33219;47.410;9.730;2023-12-04T06:19:29;-5.60;99.90
47482;DHT22;33219;47.410;9.730;2023-12-04T06:21:56;-5.60;99.90
47482;DHT22;33219;47.410;9.730;2023-12-04T06:24:23;-5.50;99.90
47482;DHT22;33219;47.410;9.730;2023-12-04T06:26:50;-5.50;99.90
47482;DHT22;33219;47.410;9.730;2023-12-04T06:29:17;-5.60;99.90
47482;DHT22;33219;47.410;9.730;2023-12-04T06:31:45;-5.60;99.90
47482;DHT22;33219;47.410;9.730;2023-12-04T06:34:12;-5.60;99.90
47482;DHT22;33219;47.410;9.730;2023-12-04T06:36:39;-5.60;99.90
47482;DHT22;33219;47.410;9.730;2023-12-04T06:39:11;-5.60;99.90
47482;DHT22;33219;47.410;9.730;2023-12-04T06:41:39;-5.60;99.90
47482;DHT22;33219;47.410;9.730;2023-12-04T06:44:06;-5.60;99.90
47482;DHT22;33219;47.410;9.730;2023-12-04T06:46:38;-5.60;99.90
47482;DHT22;33219;47.410;9.730;2023-12-04T06:49:07;-5.60;99.90
47482;DHT22;33219;47.410;9.730;2023-12-04T06:51:36;-5.50;99.90
47482;DHT22;33219;47.410;9.730;2023-12-04T06:54:03;-5.50;99.90
47482;DHT22;33219;47.410;9.730;2023-12-04T06:56:31;-5.50;99.90
47482;DHT22;33219;47.410;9.730;2023-12-04T06:59:11;-5.40;99.90
47482;DHT22;33219;47.410;9.730;2023-12-04T07:01:39;-5.40;99.90
47482;DHT22;33219;47.410;9.730;2023-12-04T07:04:10;-5.30;99.90
47482;DHT22;33219;47.410;9.730;2023-12-04T07:07:02;-5.30;99.90
47482;DHT22;33219;47.410;9.730;2023-12-04T07:09:36;-5.30;99.90
47482;DHT22;33219;47.410;9.730;2023-12-04T07:12:24;-5.20;99.90
47482;DHT22;33219;47.410;9.730;2023-12-04T07:15:11;-5.10;99.90
47482;DHT22;33219;47.410;9.730;2023-12-04T07:18:01;-5.00;99.90
47482;DHT22;33219;47.410;9.730;2023-12-04T07:20:38;-5.00;99.90
47482;DHT22;33219;47.410;9.730;2023-12-04T07:23:18;-4.90;99.90
47482;DHT22;33219;47.410;9.730;2023-12-04T07:26:06;-4.80;99.90
47482;DHT22;33219;47.410;9.730;2023-12-04T07:28:51;-4.80;99.90
47482;DHT22;33219;47.410;9.730;2023-12-04T07:34:25;-4.60;99.90
47482;DHT22;33219;47.410;9.730;2023-12-04T07:36:56;-4.60;99.90
47482;DHT22;33219;47.410;9.730;2023-12-04T07:39:28;-4.60;99.90
47482;DHT22;33219;47.410;9.730;2023-12-04T07:48:08;-4.30;99.90
47482;DHT22;33219;47.410;9.730;2023-12-04T07:50:36;-4.30;99.90
47482;DHT22;33219;47.410;9.730;2023-12-04T07:53:07;-4.20;99.90
47482;DHT22;33219;47.410;9.730;2023-12-04T07:55:39;-4.20;99.90
47482;DHT22;33219;47.410;9.730;2023-12-04T08:01:07;-4.20;99.90
47482;DHT22;33219;47.410;9.730;2023-12-04T08:03:44;-4.10;99.90
47482;DHT22;33219;47.410;9.730;2023-12-04T08:09:06;-4.20;99.90
47482;DHT22;33219;47.410;9.730;2023-12-04T08:11:49;-4.10;99.90
47482;DHT22;33219;47.410;9.730;2023-12-04T08:14:34;-4.00;99.90
47482;DHT22;33219;47.410;9.730;2023-12-04T08:17:25;-4.00;99.90
47482;DHT22;33219;47.410;9.730;2023-12-04T08:20:14;-4.00;99.90
47482;DHT22;33219;47.410;9.730;2023-12-04T08:22:51;-4.00;99.90
47482;DHT22;33219;47.410;9.730;2023-12-04T08:25:39;-3.90;99.90
47482;DHT22;33219;47.410;9.730;2023-12-04T08:34:08;-3.70;99.90
47482;DHT22;33219;47.410;9.730;2023-12-04T08:36:40;-3.60;99.90
47482;DHT22;33219;47.410;9.730;2023-12-04T08:39:18;-3.70;99.90
47482;DHT22;33219;47.410;9.730;2023-12-04T08:44:47;-3.70;99.90
47482;DHT22;33219;47.410;9.730;2023-12-04T08:47:19;-3.70;99.90
47482;DHT22;33219;47.410;9.730;2023-12-04T08:49:51;-3.70;99.90
47482;DHT22;33219;47.410;9.730;2023-12-04T08:52:23;-3.50;99.90
47482;DHT22;33219;47.410;9.730;2023-12-04T08:55:03;-3.60;99.90
47482;DHT22;33219;47.410;9.730;2023-12-04T09:00:40;-3.40;99.90
47482;DHT22;33219;47.410;9.730;2023-12-04T09:06:01;-3.20;99.90
47482;DHT22;33219;47.410;9.730;2023-12-04T09:11:37;-3.10;99.90
47482;DHT22;33219;47.410;9.730;2023-12-04T09:14:08;-2.90;99.90
47482;DHT22;33219;47.410;9.730;2023-12-04T09:16:50;-2.80;99.90
47482;DHT22;33219;47.410;9.730;2023-12-04T09:19:30;-2.80;99.90
47482;DHT22;33219;47.410;9.730;2023-12-04T09:24:53;-2.70;99.90
47482;DHT22;33219;47.410;9.730;2023-12-04T09:27:24;-2.50;99.90
47482;DHT22;33219;47.410;9.730;2023-12-04T09:30:01;-2.50;99.90
47482;DHT22;33219;47.410;9.730;2023-12-04T09:35:22;-2.40;99.90
47482;DHT22;33219;47.410;9.730;2023-12-04T09:37:57;-2.20;99.90
47482;DHT22;33219;47.410;9.730;2023-12-04T09:40:32;-2.10;99.90
47482;DHT22;33219;47.410;9.730;2023-12-04T09:43:02;-2.40;99.90
47482;DHT22;33219;47.410;9.730;2023-12-04T09:45:38;-2.40;99.90
47482;DHT22;33219;47.410;9.730;2023-12-04T09:48:02;-2.10;99.90
47482;DHT22;33219;47.410;9.730;2023-12-04T09:50:41;-1.90;99.90
47482;DHT22;33219;47.410;9.730;2023-12-04T09:53:30;-1.70;99.90
47482;DHT22;33219;47.410;9.730;2023-12-04T09:56:13;-1.50;99.90
47482;DHT22;33219;47.410;9.730;2023-12-04T09:58:43;-1.50;99.90
47482;DHT22;33219;47.410;9.730;2023-12-04T10:01:18;-1.60;99.90
47482;DHT22;33219;47.410;9.730;2023-12-04T10:03:50;-1.60;99.90
47482;DHT22;33219;47.410;9.730;2023-12-04T10:06:22;-1.50;99.90
47482;DHT22;33219;47.410;9.730;2023-12-04T10:09:20;-1.30;99.90
47482;DHT22;33219;47.410;9.730;2023-12-04T10:11:54;-1.50;99.90
47482;DHT22;33219;47.410;9.730;2023-12-04T10:16:58;-1.60;99.90
47482;DHT22;33219;47.410;9.730;2023-12-04T10:19:38;-1.50;99.90
47482;DHT22;33219;47.410;9.730;2023-12-04T10:22:12;-1.60;99.90
47482;DHT22;33219;47.410;9.730;2023-12-04T10:24:55;-1.60;99.90
47482;DHT22;33219;47.410;9.730;2023-12-04T10:27:29;-1.50;99.90
47482;DHT22;33219;47.410;9.730;2023-12-04T10:33:15;-1.30;99.90
47482;DHT22;33219;47.410;9.730;2023-12-04T10:35:48;-1.40;99.90
47482;DHT22;33219;47.410;9.730;2023-12-04T10:38:16;-1.40;99.90
47482;DHT22;33219;47.410;9.730;2023-12-04T10:40:47;-1.40;99.90
47482;DHT22;33219;47.410;9.730;2023-12-04T10:43:19;-1.40;99.90
47482;DHT22;33219;47.410;9.730;2023-12-04T10:45:51;-1.40;99.90
47482;DHT22;33219;47.410;9.730;2023-12-04T10:48:27;-1.30;99.90
47482;DHT22;33219;47.410;9.730;2023-12-04T10:51:06;-1.10;99.90
47482;DHT22;33219;47.410;9.730;2023-12-04T10:53:36;-1.00;99.90
47482;DHT22;33219;47.410;9.730;2023-12-04T10:56:14;-0.90;99.90
47482;DHT22;33219;47.410;9.730;2023-12-04T11:01:24;-0.70;99.90
47482;DHT22;33219;47.410;9.730;2023-12-04T11:04:04;-0.70;99.90
47482;DHT22;33219;47.410;9.730;2023-12-04T11:15:12;0.40;99.90
47482;DHT22;33219;47.410;9.730;2023-12-04T11:20:59;0.60;99.90
47482;DHT22;33219;47.410;9.730;2023-12-04T11:23:23;0.70;99.90
47482;DHT22;33219;47.410;9.730;2023-12-04T11:26:06;0.70;99.90
47482;DHT22;33219;47.410;9.730;2023-12-04T11:28:48;0.60;99.90
47482;DHT22;33219;47.410;9.730;2023-12-04T11:37:04;-0.10;99.90
47482;DHT22;33219;47.410;9.730;2023-12-04T11:39:35;0.10;99.90
47482;DHT22;33219;47.410;9.730;2023-12-04T11:42:07;0.00;99.90
47482;DHT22;33219;47.410;9.730;2023-12-04T11:44:40;0.00;99.90
47482;DHT22;33219;47.410;9.730;2023-12-04T11:47:12;-0.10;99.90
47482;DHT22;33219;47.410;9.730;2023-12-04T11:49:45;-0.20;99.90
47482;DHT22;33219;47.410;9.730;2023-12-04T11:52:13;-0.30;99.90
47482;DHT22;33219;47.410;9.730;2023-12-04T11:54:57;-0.20;99.90
47482;DHT22;33219;47.410;9.730;2023-12-04T11:57:26;0.00;99.90
47482;DHT22;33219;47.410;9.730;2023-12-04T12:03:00;0.10;99.90
47482;DHT22;33219;47.410;9.730;2023-12-04T12:05:20;0.30;99.90
47482;DHT22;33219;47.410;9.730;2023-12-04T12:07:48;0.20;99.90
47482;DHT22;33219;47.410;9.730;2023-12-04T12:10:22;0.20;99.90
47482;DHT22;33219;47.410;9.730;2023-12-04T12:12:52;0.30;99.90
47482;DHT22;33219;47.410;9.730;2023-12-04T12:15:24;0.20;99.90
47482;DHT22;33219;47.410;9.730;2023-12-04T12:17:55;0.10;99.90
47482;DHT22;33219;47.410;9.730;2023-12-04T12:20:23;0.10;99.90
47482;DHT22;33219;47.410;9.730;2023-12-04T12:22:53;0.00;99.90
47482;DHT22;33219;47.410;9.730;2023-12-04T12:25:30;0.10;99.90
47482;DHT22;33219;47.410;9.730;2023-12-04T12:31:11;0.10;99.90
47482;DHT22;33219;47.410;9.730;2023-12-04T12:33:52;0.00;99.90
47482;DHT22;33219;47.410;9.730;2023-12-04T12:36:22;-0.10;99.90
47482;DHT22;33219;47.410;9.730;2023-12-04T12:44:38;-0.10;99.90
47482;DHT22;33219;47.410;9.730;2023-12-04T12:47:06;-0.10;99.90
47482;DHT22;33219;47.410;9.730;2023-12-04T12:49:36;-0.20;99.90
47482;DHT22;33219;47.410;9.730;2023-12-04T12:52:05;-0.40;99.90
47482;DHT22;33219;47.410;9.730;2023-12-04T12:54:46;-0.50;99.90
47482;DHT22;33219;47.410;9.730;2023-12-04T12:57:26;-0.60;99.90
47482;DHT22;33219;47.410;9.730;2023-12-04T12:59:57;-0.60;99.90
47482;DHT22;33219;47.410;9.730;2023-12-04T13:05:48;-0.40;99.90
47482;DHT22;33219;47.410;9.730;2023-12-04T13:08:12;-0.30;99.90
47482;DHT22;33219;47.410;9.730;2023-12-04T13:10:45;-0.10;99.90
47482;DHT22;33219;47.410;9.730;2023-12-04T13:16:00;0.10;99.90
47482;DHT22;33219;47.410;9.730;2023-12-04T13:18:28;0.20;99.90
47482;DHT22;33219;47.410;9.730;2023-12-04T13:24:10;0.10;99.90
47482;DHT22;33219;47.410;9.730;2023-12-04T13:26:37;0.20;99.90
47482;DHT22;33219;47.410;9.730;2023-12-04T13:29:09;0.10;99.90
47482;DHT22;33219;47.410;9.730;2023-12-04T13:31:43;0.00;99.90
47482;DHT22;33219;47.410;9.730;2023-12-04T13:34:35;-0.20;99.90
47482;DHT22;33219;47.410;9.730;2023-12-04T13:37:15;-0.20;99.90
47482;DHT22;33219;47.410;9.730;2023-12-04T13:42:41;-0.30;99.90
47482;DHT22;33219;47.410;9.730;2023-12-04T13:45:26;-0.30;99.90
47482;DHT22;33219;47.410;9.730;2023-12-04T13:47:57;-0.40;99.90
47482;DHT22;33219;47.410;9.730;2023-12-04T13:52:58;-0.50;99.90
47482;DHT22;33219;47.410;9.730;2023-12-04T13:55:26;-0.60;99.90
47482;DHT22;33219;47.410;9.730;2023-12-04T13:57:58;-0.60;99.90
47482;DHT22;33219;47.410;9.730;2023-12-04T14:00:26;-0.60;99.90
47482;DHT22;33219;47.410;9.730;2023-12-04T14:03:02;-0.60;99.90
47482;DHT22;33219;47.410;9.730;2023-12-04T14:05:34;-0.50;99.90
47482;DHT22;33219;47.410;9.730;2023-12-04T14:08:02;-0.40;99.90
47482;DHT22;33219;47.410;9.730;2023-12-04T14:10:30;-0.20;99.90
47482;DHT22;33219;47.410;9.730;2023-12-04T14:15:33;-0.10;99.90
47482;DHT22;33219;47.410;9.730;2023-12-04T14:18:03;0.00;99.90
47482;DHT22;33219;47.410;9.730;2023-12-04T14:20:37;0.00;99.90
47482;DHT22;33219;47.410;9.730;2023-12-04T14:23:10;0.00;99.90
47482;DHT22;33219;47.410;9.730;2023-12-04T14:25:56;0.10;99.90
47482;DHT22;33219;47.410;9.730;2023-12-04T14:28:27;0.10;99.90
47482;DHT22;33219;47.410;9.730;2023-12-04T14:30:54;0.20;99.90
47482;DHT22;33219;47.410;9.730;2023-12-04T14:33:22;0.10;99.90
47482;DHT22;33219;47.410;9.730;2023-12-04T14:36:00;0.10;99.90
47482;DHT22;33219;47.410;9.730;2023-12-04T14:38:29;0.10;99.90
47482;DHT22;33219;47.410;9.730;2023-12-04T14:40:58;0.00;99.90
47482;DHT22;33219;47.410;9.730;2023-12-04T14:43:29;-0.10;99.90
47482;DHT22;33219;47.410;9.730;2023-12-04T14:45:59;0.00;99.90
47482;DHT22;33219;47.410;9.730;2023-12-04T14:48:29;-0.10;99.90
47482;DHT22;33219;47.410;9.730;2023-12-04T14:51:01;-0.20;99.90
47482;DHT22;33219;47.410;9.730;2023-12-04T14:53:30;-0.20;99.90
47482;DHT22;33219;47.410;9.730;2023-12-04T14:55:58;-0.20;99.90
47482;DHT22;33219;47.410;9.730;2023-12-04T14:58:43;-0.20;99.90
47482;DHT22;33219;47.410;9.730;2023-12-04T15:01:13;-0.20;99.90
47482;DHT22;33219;47.410;9.730;2023-12-04T15:04:00;-0.20;99.90
47482;DHT22;33219;47.410;9.730;2023-12-04T15:06:50;-0.30;99.90
47482;DHT22;33219;47.410;9.730;2023-12-04T15:09:35;-0.40;99.90
47482;DHT22;33219;47.410;9.730;2023-12-04T15:12:12;-0.40;99.90
47482;DHT22;33219;47.410;9.730;2023-12-04T15:14:56;-0.40;99.90
47482;DHT22;33219;47.410;9.730;2023-12-04T15:17:31;-0.40;99.90
47482;DHT22;33219;47.410;9.730;2023-12-04T15:20:02;-0.40;99.90
47482;DHT22;33219;47.410;9.730;2023-12-04T15:22:32;-0.40;99.90
47482;DHT22;33219;47.410;9.730;2023-12-04T15:24:59;-0.40;99.90
47482;DHT22;33219;47.410;9.730;2023-12-04T15:27:26;-0.40;99.90
47482;DHT22;33219;47.410;9.730;2023-12-04T15:29:53;-0.40;99.90
47482;DHT22;33219;47.410;9.730;2023-12-04T15:32:19;-0.40;99.90
47482;DHT22;33219;47.410;9.730;2023-12-04T15:34:47;-0.40;99.90
47482;DHT22;33219;47.410;9.730;2023-12-04T15:37:13;-0.40;99.90
47482;DHT22;33219;47.410;9.730;2023-12-04T15:39:40;-0.40;99.90
47482;DHT22;33219;47.410;9.730;2023-12-04T15:42:07;-0.30;99.90
47482;DHT22;33219;47.410;9.730;2023-12-04T15:44:34;-0.30;99.90
47482;DHT22;33219;47.410;9.730;2023-12-04T15:47:01;-0.30;99.90
47482;DHT22;33219;47.410;9.730;2023-12-04T15:49:28;-0.20;99.90
47482;DHT22;33219;47.410;9.730;2023-12-04T15:51:55;-0.20;99.90
47482;DHT22;33219;47.410;9.730;2023-12-04T15:54:22;-0.20;99.90
47482;DHT22;33219;47.410;9.730;2023-12-04T15:56:49;-0.20;99.90
47482;DHT22;33219;47.410;9.730;2023-12-04T15:59:16;-0.20;99.90
47482;DHT22;33219;47.410;9.730;2023-12-04T16:01:43;-0.30;99.90
47482;DHT22;33219;47.410;9.730;2023-12-04T16:04:10;-0.30;99.90
47482;DHT22;33219;47.410;9.730;2023-12-04T16:06:37;-0.30;99.90
47482;DHT22;33219;47.410;9.730;2023-12-04T16:09:04;-0.30;99.90
47482;DHT22;33219;47.410;9.730;2023-12-04T16:11:31;-0.30;99.90
47482;DHT22;33219;47.410;9.730;2023-12-04T16:13:58;-0.30;99.90
47482;DHT22;33219;47.410;9.730;2023-12-04T16:16:25;-0.30;99.90
47482;DHT22;33219;47.410;9.730;2023-12-04T16:18:52;-0.30;99.90
47482;DHT22;33219;47.410;9.730;2023-12-04T16:21:19;-0.30;99.90
47482;DHT22;33219;47.410;9.730;2023-12-04T16:23:47;-0.40;99.90
47482;DHT22;33219;47.410;9.730;2023-12-04T16:26:13;-0.40;99.90
47482;DHT22;33219;47.410;9.730;2023-12-04T16:28:40;-0.40;99.90
47482;DHT22;33219;47.410;9.730;2023-12-04T16:31:07;-0.40;99.90
47482;DHT22;33219;47.410;9.730;2023-12-04T16:33:34;-0.40;99.90
47482;DHT22;33219;47.410;9.730;2023-12-04T16:36:01;-0.40;99.90
47482;DHT22;33219;47.410;9.730;2023-12-04T16:38:28;-0.40;99.90
47482;DHT22;33219;47.410;9.730;2023-12-04T16:40:56;-0.40;99.90
47482;DHT22;33219;47.410;9.730;2023-12-04T16:43:23;-0.50;99.90
47482;DHT22;33219;47.410;9.730;2023-12-04T16:45:50;-0.50;99.90
47482;DHT22;33219;47.410;9.730;2023-12-04T16:48:17;-0.50;99.90
47482;DHT22;33219;47.410;9.730;2023-12-04T16:50:43;-0.60;99.90
47482;DHT22;33219;47.410;9.730;2023-12-04T16:53:10;-0.60;99.90
47482;DHT22;33219;47.410;9.730;2023-12-04T16:55:37;-0.60;99.90
47482;DHT22;33219;47.410;9.730;2023-12-04T16:58:04;-0.60;99.90
47482;DHT22;33219;47.410;9.730;2023-12-04T17:00:32;-0.60;99.90
47482;DHT22;33219;47.410;9.730;2023-12-04T17:02:59;-0.60;99.90
47482;DHT22;33219;47.410;9.730;2023-12-04T17:05:26;-0.60;99.90
47482;DHT22;33219;47.410;9.730;2023-12-04T17:07:54;-0.50;99.90
47482;DHT22;33219;47.410;9.730;2023-12-04T17:10:21;-0.50;99.90
47482;DHT22;33219;47.410;9.730;2023-12-04T17:12:48;-0.40;99.90
47482;DHT22;33219;47.410;9.730;2023-12-04T17:15:15;-0.20;99.90
47482;DHT22;33219;47.410;9.730;2023-12-04T17:17:43;0.00;99.90
47482;DHT22;33219;47.410;9.730;2023-12-04T17:20:09;0.10;99.90
47482;DHT22;33219;47.410;9.730;2023-12-04T17:22:37;0.20;99.90
47482;DHT22;33219;47.410;9.730;2023-12-04T17:25:04;0.20;99.90